Airfield :
LOGIN :

Register | Disclaimer

   EN    FR    IT 

 










Legend :    VFR   Marginal VFR   IFR   Intensive IFR   Very Intensive IFR
Visi :
Ceiling :
>= 8 km
>= 3000ft
5 to 8 km
1000 to 3000 ft
1500m to 5 km
500 to 1000 ft
800 to 1500m
200 to 500 ft
< 800m
< 200 ft
Symbols :   Thunderstorms  Fog  Heavy snow  Heavy precipitations  Wind > 20 kt
SIGMETs :     Misc.  Thunderstorms  Icing  Turbulence  Mountain Waves  Volcanic Ashes






- Airport Elevation : 433 ft


LFOC - Chateaudun

CURRENT METAR :
  • 150730Z AUTO 23008KT CAVOK 12/12 Q1008 TEMPO 4000 SHRA BKN015TCU

EXPIRED METARs :
  • 150700Z AUTO 22003KT 9999 -RA FEW007 SCT110 OVC140 11/11 Q1007 TEMPO 4000 SHRA BKN015TCU
  • 150630Z AUTO 18004KT CAVOK 11/11 Q1007 TEMPO 4000 SHRA BKN015TCU
  • 150600Z AUTO 21004KT 9000 NSC 10/10 Q1007 BECMG BKN009 BKN014
  • 150530Z AUTO 22005KT 9999 SCT010 BKN062 BKN110 11/11 Q1006 BECMG BKN009 BKN014
  • 150500Z AUTO 23005KT 9999 FEW008 SCT012 BKN210 11/10 Q1006 BECMG BKN009 BKN014

TAF TAF LFOC
Valid from the 15 at 03:00 until the 16 at 03:00 UTC


150200Z 1503/1603 23008KT 9999 BKN009 BKN014
PROB40
TEMPO 1508/1510 4000 SHRA BKN015TCU
BECMG 1510/1512 SCT035
BECMG 1601/1603 BKN005



MET'MAP, your aeronautical weather chart ! - Copyright ORBIFLY December 2007 - Disclaimer

ORBIFLY MET'MAP TEAM :

Programming & Development : Alexandra Zaïnal
Concept & Development : Baudouin d'Aumeries
Co-Development & Prog : Marc-Olivier Méhu
Technical & hardware support : Manuel Goepfert

Contact : metmap@orbifly.com




SOURCES & CREDITS :

   NOAA